Time;durP1;ratioP1;P1;durP2;ratioP2;P2;SDS_P1;SDS_P2;PMS_P1;PMS_P2;Temp;Humidity;BMP_temperature;BMP_pressure;BME280_temperature;BME280_humidity;BME280_pressure;Samples;Min_cycle;Max_cycle;Signal;HPM_P1;HPM_P2
2021/08/20 00:01:56;;;;;;;5.55;3.97;;;20.50;86.00;;;;;;4193929;28;20058;-62
2021/08/20 00:04:19;;;;;;;3.70;3.42;;;20.50;86.10;;;;;;4193814;28;20509;-62
2021/08/20 00:06:41;;;;;;;3.65;3.45;;;20.50;86.10;;;;;;4193677;28;20090;-62
2021/08/20 00:09:03;;;;;;;3.92;3.70;;;20.50;86.10;;;;;;4193568;28;20554;-62
2021/08/20 00:11:25;;;;;;;5.05;4.00;;;20.50;86.10;;;;;;4193541;28;20102;-62
2021/08/20 00:13:47;;;;;;;4.35;4.05;;;20.50;86.10;;;;;;4193200;28;20048;-62
2021/08/20 00:16:11;;;;;;;4.68;4.28;;;20.50;86.00;;;;;;4210189;28;20920;-62
2021/08/20 00:18:33;;;;;;;5.05;4.25;;;20.50;86.00;;;;;;4210301;28;20130;-62
2021/08/20 00:20:55;;;;;;;4.35;3.92;;;20.50;86.10;;;;;;4176665;28;20480;-62
2021/08/20 00:23:17;;;;;;;3.83;3.63;;;20.50;86.20;;;;;;4160607;28;20056;-61
2021/08/20 00:25:39;;;;;;;4.07;3.83;;;20.50;86.10;;;;;;4176782;28;20099;-62
2021/08/20 00:28:01;;;;;;;3.97;3.78;;;20.50;86.20;;;;;;4183061;28;20052;-62
2021/08/20 00:30:24;;;;;;;3.78;3.58;;;20.50;86.20;;;;;;4193163;28;20502;-62
2021/08/20 00:32:47;;;;;;;3.65;3.40;;;20.50;86.20;;;;;;4191898;28;20048;-62
2021/08/20 00:35:11;;;;;;;3.42;3.22;;;20.50;86.20;;;;;;4191642;28;20123;-62
2021/08/20 00:37:33;;;;;;;3.42;3.22;;;20.40;86.20;;;;;;4192000;28;20087;-62
2021/08/20 00:39:55;;;;;;;3.47;3.28;;;20.40;86.20;;;;;;4191723;28;20048;-62
2021/08/20 00:42:18;;;;;;;3.33;3.13;;;20.40;86.30;;;;;;4191356;28;20082;-62
2021/08/20 00:44:40;;;;;;;3.58;3.28;;;20.40;86.20;;;;;;4192930;28;20147;-62
2021/08/20 00:47:02;;;;;;;3.25;3.05;;;20.40;86.30;;;;;;4191441;28;20052;-62
2021/08/20 00:49:25;;;;;;;2.85;2.75;;;20.40;86.20;;;;;;4209662;28;20074;-62
2021/08/20 00:51:47;;;;;;;3.03;2.92;;;20.40;86.20;;;;;;4208325;28;20063;-63
2021/08/20 00:54:12;;;;;;;3.03;2.83;;;20.40;86.30;;;;;;4209760;28;20052;-62
2021/08/20 00:56:34;;;;;;;2.78;2.63;;;20.40;86.30;;;;;;4209872;28;20105;-62
2021/08/20 00:58:56;;;;;;;2.90;2.80;;;20.40;86.30;;;;;;4195498;28;20049;-62
2021/08/20 01:01:19;;;;;;;3.40;3.10;;;20.40;86.30;;;;;;4192592;28;20465;-62
2021/08/20 01:03:41;;;;;;;3.08;2.90;;;20.40;86.30;;;;;;4192950;28;20059;-62
2021/08/20 01:06:07;;;;;;;4.60;3.55;;;20.40;86.30;;;;;;4190978;28;20569;-61
2021/08/20 01:08:30;;;;;;;3.63;3.33;;;20.40;86.30;;;;;;4193287;28;20508;-62
2021/08/20 01:10:55;;;;;;;3.47;3.28;;;20.40;86.30;;;;;;4192423;28;20121;-61
2021/08/20 01:13:18;;;;;;;4.20;3.90;;;20.40;86.20;;;;;;4200287;28;20074;-62
2021/08/20 01:15:40;;;;;;;4.55;3.67;;;20.40;86.20;;;;;;4209313;28;20048;-62
2021/08/20 01:18:02;;;;;;;4.18;3.78;;;20.40;86.20;;;;;;4209061;28;20060;-62
2021/08/20 01:20:24;;;;;;;4.95;4.55;;;20.40;87.10;;;;;;4205164;28;20057;-62
2021/08/20 01:22:48;;;;;;;4.05;3.85;;;20.40;86.20;;;;;;4174752;28;20550;-62
2021/08/20 01:25:12;;;;;;;4.93;4.05;;;20.40;86.20;;;;;;4174663;28;20045;-62
2021/08/20 01:27:36;;;;;;;4.32;3.92;;;20.40;86.20;;;;;;4178463;28;20072;-62
2021/08/20 01:30:01;;;;;;;4.70;4.30;;;20.40;86.30;;;;;;4190623;28;20057;-62
2021/08/20 01:32:24;;;;;;;4.35;4.05;;;20.40;86.30;;;;;;4191095;28;20488;-62
2021/08/20 01:34:46;;;;;;;4.95;4.55;;;20.40;86.30;;;;;;4192215;28;20098;-62
2021/08/20 01:37:09;;;;;;;5.05;4.57;;;20.30;86.20;;;;;;4190782;28;20048;-62
2021/08/20 01:39:31;;;;;;;5.30;4.28;;;20.40;87.20;;;;;;4190801;28;20408;-62
2021/08/20 01:41:55;;;;;;;7.28;4.70;;;20.40;86.30;;;;;;4178169;28;20048;-60
2021/08/20 01:44:17;;;;;;;5.03;4.55;;;20.40;86.30;;;;;;4190284;28;20059;-62
2021/08/20 01:46:38;;;;;;;4.90;4.50;;;20.40;86.30;;;;;;4190693;28;20052;-62
2021/08/20 01:49:03;;;;;;;5.05;4.65;;;20.30;87.10;;;;;;4192008;28;20410;-61
2021/08/20 01:51:26;;;;;;;5.18;4.65;;;20.30;86.20;;;;;;4190356;28;20564;-61
2021/08/20 01:53:48;;;;;;;5.70;5.03;;;20.40;86.30;;;;;;4190609;28;20131;-61
2021/08/20 01:56:14;;;;;;;5.10;4.60;;;20.40;86.30;;;;;;4191989;28;20051;-62
2021/08/20 01:58:38;;;;;;;7.75;5.60;;;20.30;86.10;;;;;;4190063;28;20051;-62
2021/08/20 02:01:00;;;;;;;5.65;5.20;;;20.30;86.20;;;;;;4190235;28;20505;-62
2021/08/20 02:03:22;;;;;;;8.18;6.05;;;20.30;86.20;;;;;;4190615;28;20055;-61
2021/08/20 02:05:44;;;;;;;5.95;5.45;;;20.30;86.20;;;;;;4190146;28;20056;-62
2021/08/20 02:08:06;;;;;;;6.68;6.07;;;20.30;86.20;;;;;;4191796;28;20496;-61
2021/08/20 02:10:28;;;;;;;7.05;6.35;;;20.30;86.20;;;;;;4190457;28;20066;-62
2021/08/20 02:12:50;;;;;;;7.55;6.50;;;20.30;86.20;;;;;;4200636;28;20060;-62
2021/08/20 02:15:13;;;;;;;7.10;6.40;;;20.30;86.20;;;;;;4190417;28;20066;-62
2021/08/20 02:17:36;;;;;;;9.68;7.55;;;20.30;86.30;;;;;;4191517;28;20100;-62
2021/08/20 02:19:59;;;;;;;7.57;6.68;;;20.30;86.20;;;;;;4190307;28;20100;-62
2021/08/20 02:22:21;;;;;;;7.82;7.03;;;20.30;86.20;;;;;;4173891;28;20055;-62
2021/08/20 02:24:44;;;;;;;8.30;6.88;;;20.30;86.20;;;;;;4173794;28;20068;-62
2021/08/20 02:27:07;;;;;;;8.88;8.13;;;20.30;86.20;;;;;;4175648;28;20108;-62
2021/08/20 02:29:29;;;;;;;9.95;7.93;;;20.30;86.20;;;;;;4206364;28;20051;-62
2021/08/20 02:31:55;;;;;;;8.75;7.95;;;20.30;86.20;;;;;;4205038;28;20188;-62
2021/08/20 02:34:17;;;;;;;9.60;8.63;;;20.30;86.20;;;;;;4190388;28;20052;-62
2021/08/20 02:36:39;;;;;;;9.20;8.30;;;20.30;86.30;;;;;;4189949;28;20060;-62
2021/08/20 02:39:01;;;;;;;10.15;9.13;;;20.30;86.30;;;;;;4190105;28;20048;-62
2021/08/20 02:41:25;;;;;;;10.50;9.35;;;20.30;86.30;;;;;;4190234;28;20056;-62
2021/08/20 02:43:47;;;;;;;11.40;10.25;;;20.30;86.40;;;;;;4206584;28;20055;-62
2021/08/20 02:46:09;;;;;;;11.32;10.13;;;20.30;86.30;;;;;;4206870;28;20056;-62
2021/08/20 02:48:33;;;;;;;12.27;10.98;;;20.30;86.30;;;;;;4196256;28;20147;-62
2021/08/20 02:50:57;;;;;;;11.63;10.43;;;20.30;86.30;;;;;;4189886;28;20072;-63
2021/08/20 02:53:23;;;;;;;11.65;10.45;;;20.30;86.30;;;;;;4205585;28;20180;-62
2021/08/20 02:55:45;;;;;;;13.27;11.88;;;20.20;86.30;;;;;;4208056;28;20478;-62
2021/08/20 02:58:07;;;;;;;13.57;10.50;;;20.20;86.30;;;;;;4194409;28;20082;-61
2021/08/20 03:00:40;;;;;;;12.45;11.35;;;20.20;86.40;;;;;;4195409;28;20165;-62
2021/08/20 03:03:03;;;;;;;13.70;11.25;;;20.20;87.20;;;;;;4206003;28;20044;-61
2021/08/20 03:05:27;;;;;;;13.10;10.65;;;20.20;86.30;;;;;;4206680;28;20036;-62
2021/08/20 03:07:49;;;;;;;12.80;11.50;;;20.20;86.30;;;;;;4205667;28;20121;-62
2021/08/20 03:10:14;;;;;;;12.75;10.63;;;20.20;86.40;;;;;;4206148;28;20052;-61
2021/08/20 03:12:36;;;;;;;12.32;11.18;;;20.20;86.50;;;;;;4202196;28;20161;-61
2021/08/20 03:15:00;;;;;;;12.57;11.15;;;20.20;86.50;;;;;;4207454;28;20059;-62
2021/08/20 03:17:26;;;;;;;12.95;11.50;;;20.20;86.50;;;;;;4207947;28;20044;-61
2021/08/20 03:19:48;;;;;;;12.57;11.43;;;20.20;86.50;;;;;;4206382;28;20457;-62
2021/08/20 03:22:12;;;;;;;14.63;11.82;;;20.20;86.50;;;;;;4206244;28;20523;-62
2021/08/20 03:24:35;;;;;;;12.48;11.02;;;20.20;86.50;;;;;;4207568;28;20094;-61
2021/08/20 03:26:57;;;;;;;14.23;11.98;;;20.20;86.50;;;;;;4200594;28;20059;-62
2021/08/20 03:29:20;;;;;;;12.50;11.13;;;20.20;86.60;;;;;;4206262;28;20121;-62
2021/08/20 03:31:54;;;;;;;16.63;11.90;;;20.20;86.60;;;;;;4173104;28;20052;-61
2021/08/20 03:34:17;;;;;;;13.13;11.73;;;20.20;86.60;;;;;;4174495;28;20091;-62
2021/08/20 03:36:39;;;;;;;14.15;12.50;;;20.20;86.60;;;;;;4173166;28;20056;-62
2021/08/20 03:39:21;;;;;;;;;;;20.20;86.60;;;;;;4173311;28;20499;-62
2021/08/20 03:41:44;;;;;;;15.27;13.77;;;20.20;86.60;;;;;;4177578;28;20042;-62
2021/08/20 03:44:10;;;;;;;13.18;11.77;;;20.10;86.70;;;;;;4206358;28;20109;-62
2021/08/20 03:46:38;;;;;;;16.38;12.82;;;20.10;86.60;;;;;;4205111;28;20135;-62
2021/08/20 03:49:00;;;;;;;13.88;11.30;;;20.10;86.60;;;;;;4189285;28;20040;-63
2021/08/20 03:51:24;;;;;;;14.20;12.80;;;20.10;86.50;;;;;;4189307;28;20476;-62
2021/08/20 03:53:47;;;;;;;13.80;12.20;;;20.10;86.50;;;;;;4189415;28;20044;-62
2021/08/20 03:56:11;;;;;;;13.25;11.95;;;20.20;86.60;;;;;;4188972;28;20054;-62
2021/08/20 03:58:36;;;;;;;14.85;12.85;;;20.10;86.50;;;;;;4174241;28;20056;-61
2021/08/20 04:01:06;;;;;;;14.27;11.73;;;20.10;86.50;;;;;;4172889;28;20040;-61
2021/08/20 04:03:29;;;;;;;13.48;11.40;;;20.10;86.50;;;;;;4173024;28;20045;-61
2021/08/20 04:05:52;;;;;;;14.25;12.77;;;20.10;86.40;;;;;;4172865;28;20056;-62
2021/08/20 04:08:18;;;;;;;13.75;11.50;;;20.10;86.40;;;;;;4188197;28;20097;-61
2021/08/20 04:11:03;;;;;;;14.32;12.82;;;20.10;86.50;;;;;;4193597;28;20131;-63
2021/08/20 04:13:39;;;;;;;13.70;12.40;;;20.10;87.40;;;;;;4182974;28;20058;-62
2021/08/20 04:16:02;;;;;;;15.25;13.07;;;20.10;86.50;;;;;;4208708;28;20409;-62
2021/08/20 04:18:24;;;;;;;13.32;12.05;;;20.10;86.50;;;;;;4194062;28;20044;-62
2021/08/20 04:20:46;;;;;;;11.63;10.52;;;20.10;86.50;;;;;;4191915;28;20052;-62
2021/08/20 04:23:13;;;;;;;15.40;13.02;;;20.10;86.50;;;;;;4192333;28;20580;-61
2021/08/20 04:25:39;;;;;;;14.75;13.13;;;20.10;86.50;;;;;;4192251;28;20131;-62
2021/08/20 04:28:20;;;;;;;14.65;13.07;;;20.10;86.50;;;;;;4160121;28;20057;-61
2021/08/20 04:31:04;;;;;;;14.75;13.10;;;20.10;86.50;;;;;;4176547;28;20487;-61
2021/08/20 04:33:46;;;;;;;15.77;14.13;;;20.10;86.50;;;;;;4176234;28;20041;-62
2021/08/20 04:36:32;;;;;;;14.02;12.48;;;20.10;86.40;;;;;;4176164;28;20055;-62
2021/08/20 04:39:14;;;;;;;15.60;12.93;;;20.10;86.50;;;;;;4192032;28;20047;-62
2021/08/20 04:41:55;;;;;;;13.88;12.43;;;20.10;86.50;;;;;;4193096;28;20686;-62
2021/08/20 04:44:23;;;;;;;13.93;12.05;;;20.10;86.50;;;;;;4191341;28;20517;-61
2021/08/20 04:47:21;;;;;;;15.98;13.10;;;20.10;86.40;;;;;;4193116;28;20127;-62
2021/08/20 04:49:49;;;;;;;13.55;12.07;;;20.10;86.40;;;;;;4192667;28;20057;-63
2021/08/20 04:52:25;;;;;;;14.25;12.85;;;20.10;86.40;;;;;;4192736;28;20098;-62
2021/08/20 04:55:06;;;;;;;20.35;13.45;;;20.10;86.40;;;;;;4209454;28;20409;-62
2021/08/20 04:57:28;;;;;;;13.73;12.48;;;20.10;86.40;;;;;;4206698;28;20486;-62
2021/08/20 04:59:50;;;;;;;13.45;12.07;;;20.10;86.30;;;;;;4208128;28;20056;-62
2021/08/20 05:02:12;;;;;;;13.75;12.23;;;20.10;86.40;;;;;;4208288;28;20105;-62
2021/08/20 05:04:37;;;;;;;14.50;12.07;;;20.10;86.30;;;;;;4209740;28;20048;-62
2021/08/20 05:06:59;;;;;;;14.65;11.82;;;20.10;86.20;;;;;;4209316;28;20048;-62
2021/08/20 05:09:20;;;;;;;12.73;11.48;;;20.10;86.20;;;;;;4209497;28;20486;-62
2021/08/20 05:11:43;;;;;;;14.18;12.15;;;20.10;86.20;;;;;;4203278;28;20498;-62
2021/08/20 05:14:05;;;;;;;13.27;12.05;;;20.10;86.30;;;;;;4192383;28;20414;-62
2021/08/20 05:16:27;;;;;;;14.18;12.43;;;20.10;86.30;;;;;;4192395;28;20053;-62
2021/08/20 05:18:50;;;;;;;16.77;13.05;;;20.10;86.20;;;;;;4192722;28;20123;-62
2021/08/20 05:21:13;;;;;;;13.80;11.95;;;20.10;86.20;;;;;;4192487;28;20505;-62
2021/08/20 05:23:35;;;;;;;13.05;11.88;;;20.10;86.20;;;;;;4192718;28;20056;-62
2021/08/20 05:25:57;;;;;;;17.08;12.77;;;20.10;86.10;;;;;;4192278;28;20106;-62
2021/08/20 05:28:20;;;;;;;15.18;12.35;;;20.10;87.00;;;;;;4192312;28;20057;-62
2021/08/20 05:30:42;;;;;;;12.88;11.57;;;20.10;86.10;;;;;;4192406;28;20076;-62
2021/08/20 05:33:04;;;;;;;14.95;12.93;;;20.10;86.10;;;;;;4192439;28;20102;-62
2021/08/20 05:35:27;;;;;;;15.05;13.05;;;20.10;86.10;;;;;;4192623;28;20166;-63
2021/08/20 05:37:50;;;;;;;14.88;12.60;;;20.10;87.00;;;;;;4176951;28;20053;-62
2021/08/20 05:40:14;;;;;;;14.18;12.20;;;20.10;86.10;;;;;;4192324;28;20096;-62
2021/08/20 05:42:36;;;;;;;15.10;13.50;;;20.20;86.20;;;;;;4192002;28;20604;-62
2021/08/20 05:44:58;;;;;;;14.85;13.15;;;20.10;86.20;;;;;;4183881;28;20101;-63
2021/08/20 05:47:20;;;;;;;15.00;13.40;;;20.10;86.30;;;;;;4191932;28;20529;-63
2021/08/20 05:49:42;;;;;;;14.07;12.05;;;20.10;86.40;;;;;;4208484;28;20056;-63
2021/08/20 05:52:05;;;;;;;16.40;12.65;;;20.20;86.50;;;;;;4208976;28;20493;-63
2021/08/20 05:54:28;;;;;;;13.80;12.45;;;20.20;86.50;;;;;;4208300;28;20074;-64
2021/08/20 05:56:51;;;;;;;16.40;12.93;;;20.20;87.20;;;;;;4199458;28;20565;-63
2021/08/20 05:59:13;;;;;;;14.77;11.57;;;20.20;86.60;;;;;;4191222;28;20477;-62
2021/08/20 06:01:36;;;;;;;14.55;13.05;;;20.20;86.50;;;;;;4191835;28;20433;-63
2021/08/20 06:03:58;;;;;;;14.15;12.68;;;20.30;86.30;;;;;;4189972;28;20084;-63
2021/08/20 06:06:29;;;;;;;15.45;12.57;;;20.30;86.20;;;;;;4189332;28;20044;-63
2021/08/20 06:08:51;;;;;;;16.55;13.52;;;20.20;87.00;;;;;;4189938;28;20484;-63
2021/08/20 06:11:15;;;;;;;14.20;12.63;;;20.30;86.20;;;;;;4190394;28;20842;-63
2021/08/20 06:13:37;;;;;;;14.07;12.45;;;20.30;86.50;;;;;;4191539;28;20036;-63
2021/08/20 06:15:59;;;;;;;13.68;12.27;;;20.20;86.10;;;;;;4191784;28;20078;-62
2021/08/20 06:18:21;;;;;;;14.63;13.20;;;20.20;86.10;;;;;;4208415;28;20497;-63
2021/08/20 06:20:43;;;;;;;16.92;13.23;;;20.30;86.10;;;;;;4208869;28;20044;-63
2021/08/20 06:23:05;;;;;;;15.00;12.63;;;20.20;86.00;;;;;;4208826;28;20047;-62
2021/08/20 06:25:27;;;;;;;15.38;13.13;;;20.20;86.00;;;;;;4196435;28;20048;-62
2021/08/20 06:27:51;;;;;;;14.25;12.77;;;20.20;86.40;;;;;;4188311;28;20101;-61
2021/08/20 06:30:13;;;;;;;14.70;13.10;;;20.20;86.10;;;;;;4189758;28;20044;-63
2021/08/20 06:32:35;;;;;;;14.45;12.93;;;20.20;86.10;;;;;;4190958;28;20055;-62
2021/08/20 06:34:57;;;;;;;14.43;13.02;;;20.20;86.10;;;;;;4191640;28;20666;-62
2021/08/20 06:37:19;;;;;;;15.75;12.80;;;20.20;86.20;;;;;;4191308;28;20487;-61
2021/08/20 06:39:41;;;;;;;14.18;11.85;;;20.20;86.10;;;;;;4182853;28;20124;-65
2021/08/20 06:42:04;;;;;;;13.25;11.85;;;20.20;86.10;;;;;;4188894;28;20119;-63
2021/08/20 06:44:27;;;;;;;12.70;11.30;;;20.20;86.20;;;;;;4187280;28;20040;-62
2021/08/20 06:46:49;;;;;;;13.27;11.95;;;20.20;86.20;;;;;;4190945;28;20474;-63
2021/08/20 06:49:13;;;;;;;13.45;12.23;;;20.20;86.20;;;;;;4188074;28;20494;-62
2021/08/20 06:51:37;;;;;;;14.38;13.00;;;20.20;86.10;;;;;;4176083;28;20116;-63
2021/08/20 06:53:59;;;;;;;13.90;12.07;;;20.30;86.10;;;;;;4201473;28;20113;-62
2021/08/20 06:56:22;;;;;;;13.40;11.85;;;20.30;86.00;;;;;;4191698;28;20081;-63
2021/08/20 06:58:44;;;;;;;13.55;12.23;;;20.30;85.90;;;;;;4191088;28;20442;-63
2021/08/20 07:01:07;;;;;;;13.68;12.18;;;20.30;85.80;;;;;;4190697;28;20044;-64
2021/08/20 07:03:30;;;;;;;13.80;12.40;;;20.30;85.70;;;;;;4207453;28;20156;-64
2021/08/20 07:05:52;;;;;;;14.32;12.65;;;20.30;86.40;;;;;;4194031;28;20133;-62
2021/08/20 07:08:14;;;;;;;14.18;12.52;;;20.40;85.50;;;;;;4183519;28;20048;-64
2021/08/20 07:10:37;;;;;;;14.05;12.75;;;20.30;85.40;;;;;;4205237;28;20059;-63
2021/08/20 07:12:59;;;;;;;13.50;11.60;;;20.30;85.40;;;;;;4175189;28;20499;-62
2021/08/20 07:15:21;;;;;;;14.45;12.75;;;20.30;85.40;;;;;;4186298;28;20071;-62
2021/08/20 07:17:45;;;;;;;13.95;12.65;;;20.30;85.50;;;;;;4171236;28;20053;-61
2021/08/20 07:20:09;;;;;;;14.73;13.23;;;20.30;85.50;;;;;;4165492;28;20053;-63
2021/08/20 07:22:35;;;;;;;13.52;12.18;;;20.30;85.50;;;;;;4169365;28;20403;-63
2021/08/20 07:24:59;;;;;;;16.38;14.32;;;20.30;85.60;;;;;;4171764;28;20110;-63
2021/08/20 07:27:22;;;;;;;16.60;14.45;;;20.30;85.60;;;;;;4196926;28;20064;-65
2021/08/20 07:29:45;;;;;;;15.80;13.40;;;20.30;85.70;;;;;;4177882;28;20127;-63
2021/08/20 07:32:09;;;;;;;13.80;12.40;;;20.30;85.80;;;;;;4202475;28;20051;-61
2021/08/20 07:34:34;;;;;;;14.18;12.50;;;20.30;85.80;;;;;;4191108;28;20045;-63
2021/08/20 07:36:57;;;;;;;17.70;12.68;;;20.30;85.80;;;;;;4160467;28;20057;-62
2021/08/20 07:39:20;;;;;;;13.82;12.15;;;20.30;85.80;;;;;;4158072;28;20123;-62
2021/08/20 07:41:44;;;;;;;15.55;12.55;;;20.30;85.90;;;;;;4167677;28;20184;-63
2021/08/20 07:44:13;;;;;;;17.17;13.00;;;20.30;85.90;;;;;;4171213;28;20052;-64
2021/08/20 07:46:36;;;;;;;13.43;12.07;;;20.30;86.00;;;;;;4189755;28;20048;-62
2021/08/20 07:49:00;;;;;;;13.60;10.23;;;20.40;86.00;;;;;;4187510;28;20095;-63
2021/08/20 07:51:25;;;;;;;12.90;11.30;;;20.40;85.90;;;;;;4185895;28;20048;-61
2021/08/20 07:53:48;;;;;;;13.95;12.65;;;20.40;85.80;;;;;;4188539;28;20529;-61
2021/08/20 07:56:11;;;;;;;13.88;11.57;;;20.40;85.70;;;;;;4188004;28;20052;-61
2021/08/20 07:58:34;;;;;;;13.77;12.10;;;20.40;85.60;;;;;;4193774;28;20147;-63
2021/08/20 08:00:56;;;;;;;13.45;11.98;;;20.40;85.70;;;;;;4193574;28;20097;-62
2021/08/20 08:03:19;;;;;;;13.02;11.60;;;20.40;85.70;;;;;;4193707;28;20145;-63
2021/08/20 08:05:41;;;;;;;13.38;11.63;;;20.50;85.90;;;;;;4193562;28;20059;-65
2021/08/20 08:08:04;;;;;;;13.43;11.13;;;20.50;85.80;;;;;;4193382;28;20102;-65
2021/08/20 08:10:27;;;;;;;15.80;12.05;;;20.50;85.70;;;;;;4193445;28;20048;-64
2021/08/20 08:12:50;;;;;;;13.25;11.45;;;20.60;85.50;;;;;;4193425;28;20137;-63
2021/08/20 08:15:12;;;;;;;14.07;11.48;;;20.60;85.20;;;;;;4193585;28;20060;-61
2021/08/20 08:17:35;;;;;;;15.80;12.45;;;20.60;85.60;;;;;;4193150;28;20533;-60
2021/08/20 08:19:57;;;;;;;12.43;10.43;;;20.70;85.80;;;;;;4193652;28;21790;-61
2021/08/20 08:22:19;;;;;;;12.55;11.15;;;20.70;85.60;;;;;;4189756;28;20052;-61
2021/08/20 08:24:43;;;;;;;12.35;11.10;;;20.70;85.30;;;;;;4210699;28;20044;-60
2021/08/20 08:27:06;;;;;;;11.88;10.63;;;20.70;85.10;;;;;;4178303;28;20486;-60
2021/08/20 08:29:28;;;;;;;11.90;10.68;;;20.70;85.00;;;;;;4176756;28;20053;-60
2021/08/20 08:31:50;;;;;;;12.23;9.48;;;20.70;84.70;;;;;;4192033;28;20057;-61
2021/08/20 08:34:13;;;;;;;13.90;11.25;;;20.70;85.60;;;;;;4193322;28;20048;-60
2021/08/20 08:36:35;;;;;;;12.63;11.40;;;20.80;84.80;;;;;;4178860;28;20053;-61
2021/08/20 08:38:57;;;;;;;11.85;10.65;;;20.80;84.60;;;;;;4177105;28;20124;-61
2021/08/20 08:41:21;;;;;;;10.57;9.57;;;20.80;84.60;;;;;;4176730;28;20574;-61
2021/08/20 08:43:43;;;;;;;9.75;8.80;;;20.80;84.30;;;;;;4177091;28;20049;-61
2021/08/20 08:46:09;;;;;;;12.05;10.38;;;20.90;84.30;;;;;;4176613;28;20053;-61
2021/08/20 08:48:32;;;;;;;12.73;11.20;;;20.90;84.00;;;;;;4176979;28;20076;-61
2021/08/20 08:50:56;;;;;;;12.23;10.15;;;21.00;84.10;;;;;;4176650;28;20506;-60
2021/08/20 08:53:19;;;;;;;15.60;13.15;;;21.00;84.00;;;;;;4193374;28;20414;-61
2021/08/20 08:55:53;;;;;;;10.65;9.48;;;21.00;83.60;;;;;;4191923;28;20074;-61
2021/08/20 08:58:16;;;;;;;11.05;10.00;;;21.00;83.30;;;;;;4192598;28;20048;-61
2021/08/20 09:00:39;;;;;;;11.05;9.95;;;21.00;83.40;;;;;;4193470;28;20491;-61
2021/08/20 09:03:06;;;;;;;11.43;10.38;;;21.10;83.60;;;;;;4192516;28;20143;-61
2021/08/20 09:05:42;;;;;;;12.45;11.20;;;21.00;83.50;;;;;;4192926;28;20566;-61
2021/08/20 09:08:11;;;;;;;10.00;8.05;;;21.00;83.70;;;;;;4192747;28;20052;-61
2021/08/20 09:10:34;;;;;;;10.23;8.60;;;21.00;83.50;;;;;;4191098;28;20052;-61
2021/08/20 09:12:58;;;;;;;9.98;8.95;;;21.00;83.40;;;;;;4192473;28;20048;-61
2021/08/20 09:15:24;;;;;;;8.88;8.07;;;21.00;83.40;;;;;;4193496;28;20040;-61
2021/08/20 09:17:48;;;;;;;9.65;8.05;;;21.00;83.30;;;;;;4192757;28;20049;-61
2021/08/20 09:20:22;;;;;;;10.45;8.65;;;21.00;83.20;;;;;;4192624;28;20059;-61
2021/08/20 09:22:47;;;;;;;10.55;9.35;;;21.00;83.30;;;;;;4191098;28;20052;-61
2021/08/20 09:25:29;;;;;;;9.88;8.95;;;21.00;83.20;;;;;;4192074;28;20056;-61
2021/08/20 09:27:51;;;;;;;13.50;9.60;;;21.00;83.30;;;;;;4192109;28;20063;-61
2021/08/20 09:30:14;;;;;;;10.85;9.52;;;21.00;83.30;;;;;;4193130;28;20485;-61
2021/08/20 09:32:46;;;;;;;13.27;9.98;;;21.00;83.30;;;;;;4192836;28;20204;-61
2021/08/20 09:35:08;;;;;;;12.35;11.15;;;21.00;83.60;;;;;;4192019;28;20131;-61
2021/08/20 09:37:31;;;;;;;11.70;10.50;;;21.00;83.40;;;;;;4191185;28;20048;-61
2021/08/20 09:39:58;;;;;;;13.48;10.52;;;21.00;83.40;;;;;;4192078;28;20140;-61
2021/08/20 09:42:20;;;;;;;16.48;11.10;;;21.00;83.50;;;;;;4192417;28;20074;-61
2021/08/20 09:44:42;;;;;;;12.00;10.18;;;21.00;83.50;;;;;;4192222;28;20407;-61
2021/08/20 09:47:06;;;;;;;13.95;10.98;;;21.00;83.60;;;;;;4192341;28;20540;-61
2021/08/20 09:49:29;;;;;;;11.63;10.43;;;21.00;83.90;;;;;;4192091;28;20421;-61
2021/08/20 09:51:52;;;;;;;10.95;9.85;;;21.10;83.80;;;;;;4192525;28;20505;-61
2021/08/20 09:54:16;;;;;;;12.35;10.35;;;21.10;83.50;;;;;;4192296;28;20072;-61
2021/08/20 09:56:54;;;;;;;10.90;9.77;;;21.10;83.40;;;;;;4191985;28;20498;-61
2021/08/20 09:59:16;;;;;;;11.13;10.02;;;21.20;83.10;;;;;;4192164;28;20056;-61
2021/08/20 10:01:41;;;;;;;10.88;9.77;;;21.20;83.20;;;;;;4187759;28;20406;-61
2021/08/20 10:04:05;;;;;;;15.20;10.93;;;21.20;83.30;;;;;;4181276;28;20048;-62
2021/08/20 10:06:31;;;;;;;11.10;9.57;;;21.20;83.30;;;;;;4190396;28;20049;-62
2021/08/20 10:08:54;;;;;;;13.32;9.50;;;21.20;83.10;;;;;;4191590;28;20044;-62
2021/08/20 10:11:17;;;;;;;11.23;9.93;;;21.20;83.00;;;;;;4208600;28;20732;-64
2021/08/20 10:13:39;;;;;;;10.50;9.60;;;21.20;83.40;;;;;;4208750;28;20040;-63
2021/08/20 10:16:03;;;;;;;11.05;9.93;;;21.30;84.40;;;;;;4208557;28;20052;-63
2021/08/20 10:18:26;;;;;;;11.43;10.20;;;21.30;83.50;;;;;;4203216;28;20048;-65
2021/08/20 10:20:50;;;;;;;11.18;9.98;;;21.30;83.40;;;;;;4201629;28;20064;-65
2021/08/20 10:23:15;;;;;;;12.60;10.32;;;21.30;83.30;;;;;;4191789;28;20135;-64
2021/08/20 10:25:38;;;;;;;10.40;9.38;;;21.40;83.20;;;;;;4191569;28;20418;-64
2021/08/20 10:28:02;;;;;;;9.88;8.88;;;21.40;82.80;;;;;;4191836;28;20109;-64
2021/08/20 10:30:24;;;;;;;11.77;10.68;;;21.50;82.80;;;;;;4178118;28;20093;-62
2021/08/20 10:33:00;;;;;;;12.18;9.88;;;21.50;82.70;;;;;;4192682;28;20052;-62
2021/08/20 10:35:50;;;;;;;13.40;10.40;;;21.50;83.10;;;;;;4174437;28;20049;-62
2021/08/20 10:38:27;;;;;;;11.43;9.88;;;21.50;82.50;;;;;;4189544;28;20049;-63
2021/08/20 10:41:20;;;;;;;10.88;9.88;;;21.60;82.40;;;;;;4189580;28;20127;-64
2021/08/20 10:43:50;;;;;;;10.70;9.27;;;21.60;82.30;;;;;;4190032;28;20534;-64
2021/08/20 10:47:08;;;;;;;10.65;9.63;;;21.60;82.60;;;;;;4191357;28;20056;-63
2021/08/20 10:49:42;;;;;;;11.30;10.13;;;21.60;82.40;;;;;;4190507;28;20193;-64
2021/08/20 10:52:04;;;;;;;11.68;10.57;;;21.60;82.50;;;;;;4191195;28;20052;-62
2021/08/20 10:55:03;;;;;;;10.50;9.60;;;21.60;82.30;;;;;;4191381;28;20102;-63
2021/08/20 10:57:55;;;;;;;12.43;11.15;;;21.70;82.60;;;;;;4190356;28;20053;-63
2021/08/20 11:00:25;;;;;;;11.60;9.13;;;21.70;82.30;;;;;;4189986;28;20583;-63
2021/08/20 11:02:48;;;;;;;11.48;9.52;;;21.70;81.80;;;;;;4174858;28;20518;-62
2021/08/20 11:05:14;;;;;;;10.18;9.18;;;21.70;81.50;;;;;;4180866;28;20049;-62
2021/08/20 11:07:46;;;;;;;11.25;10.15;;;21.70;81.50;;;;;;4186439;28;20697;-63
2021/08/20 11:10:32;;;;;;;10.98;9.95;;;21.70;81.50;;;;;;4190367;28;20049;-63
2021/08/20 11:13:02;;;;;;;12.68;10.52;;;21.70;81.70;;;;;;4190331;28;20118;-63
2021/08/20 11:15:43;;;;;;;13.00;11.20;;;21.70;81.80;;;;;;4174304;28;20053;-63
2021/08/20 11:18:07;;;;;;;10.30;9.30;;;21.70;81.70;;;;;;4187390;28;20048;-63
2021/08/20 11:20:37;;;;;;;10.88;9.77;;;21.70;81.30;;;;;;4193355;28;20491;-63
2021/08/20 11:23:15;;;;;;;12.48;10.25;;;21.70;81.40;;;;;;4194225;28;20056;-62
2021/08/20 11:25:38;;;;;;;12.07;10.98;;;21.70;81.50;;;;;;4194001;28;20515;-63
2021/08/20 11:28:06;;;;;;;13.35;11.32;;;21.70;81.70;;;;;;4194631;28;20075;-62
2021/08/20 11:30:29;;;;;;;11.52;10.18;;;21.70;81.90;;;;;;4194030;28;20045;-62
2021/08/20 11:33:06;;;;;;;13.15;11.40;;;21.70;81.80;;;;;;4193962;28;20056;-62
2021/08/20 11:35:29;;;;;;;9.93;9.02;;;21.70;82.50;;;;;;4194352;28;20574;-62
2021/08/20 11:37:55;;;;;;;10.85;8.52;;;21.70;82.90;;;;;;4193935;28;20044;-62
2021/08/20 11:40:17;;;;;;;10.32;9.05;;;21.70;82.60;;;;;;4194233;28;20441;-62
2021/08/20 11:42:39;;;;;;;12.35;8.63;;;21.70;82.30;;;;;;4194004;28;20044;-61
2021/08/20 11:45:23;;;;;;;11.20;10.07;;;21.70;82.40;;;;;;4194181;28;20113;-62
2021/08/20 11:47:45;;;;;;;11.48;9.50;;;21.70;82.60;;;;;;4193648;28;20045;-62
2021/08/20 11:50:08;;;;;;;11.75;10.50;;;21.60;82.50;;;;;;4193570;28;20495;-62
2021/08/20 11:52:30;;;;;;;11.00;9.63;;;21.70;82.60;;;;;;4193919;28;20040;-62
2021/08/20 11:54:52;;;;;;;11.50;10.38;;;21.60;82.70;;;;;;4194015;28;20063;-63
2021/08/20 11:57:14;;;;;;;10.82;9.82;;;21.60;82.70;;;;;;4203341;28;20464;-63
2021/08/20 11:59:37;;;;;;;10.70;9.60;;;21.60;82.80;;;;;;4210659;28;20054;-62
2021/08/20 12:02:01;;;;;;;9.82;8.85;;;21.60;83.00;;;;;;4206159;28;20143;-62
2021/08/20 12:04:26;;;;;;;9.40;8.40;;;21.70;83.00;;;;;;4209844;28;20048;-62
2021/08/20 12:06:49;;;;;;;9.00;8.10;;;21.60;83.00;;;;;;4193709;28;20045;-62
2021/08/20 12:09:12;;;;;;;9.23;8.30;;;21.70;82.90;;;;;;4193786;28;20040;-62
2021/08/20 12:11:35;;;;;;;9.27;8.10;;;21.60;82.70;;;;;;4193659;28;20078;-63
2021/08/20 12:13:57;;;;;;;9.80;8.43;;;21.60;82.60;;;;;;4193515;28;20105;-63
2021/08/20 12:16:39;;;;;;;9.38;8.27;;;21.70;82.60;;;;;;4192282;28;20053;-62
2021/08/20 12:19:13;;;;;;;8.23;7.32;;;21.70;82.60;;;;;;4208466;28;20050;-63
2021/08/20 12:21:35;;;;;;;8.18;7.38;;;21.70;82.50;;;;;;4209948;28;20142;-63
2021/08/20 12:23:59;;;;;;;9.05;7.88;;;21.70;82.40;;;;;;4210085;28;20567;-62